createdAt,value
2018-03-12T00:00:00.888Z,0
2018-03-12T00:01:10.071Z,0
2018-03-12T00:02:18.973Z,0
2018-03-12T00:03:27.618Z,0
2018-03-12T00:04:36.807Z,0
2018-03-12T00:05:45.447Z,0
2018-03-12T00:06:54.399Z,0
2018-03-12T00:08:03.051Z,0
2018-03-12T00:09:12.236Z,0
2018-03-12T00:10:21.181Z,0
2018-03-12T00:11:30.630Z,0
2018-03-12T00:12:40.047Z,0
2018-03-12T00:13:48.965Z,0
2018-03-12T00:14:57.613Z,0
2018-03-12T00:16:06.787Z,0
2018-03-12T00:17:16.504Z,0
2018-03-12T00:18:25.697Z,0
2018-03-12T00:19:34.370Z,0
2018-03-12T00:20:43.052Z,0
2018-03-12T00:21:51.757Z,0
2018-03-12T00:23:00.947Z,0
2018-03-12T00:24:10.912Z,0
2018-03-12T00:25:19.850Z,0
2018-03-12T00:26:29.018Z,0
2018-03-12T00:27:37.916Z,0
2018-03-12T00:28:47.370Z,0
2018-03-12T00:29:56.021Z,0
2018-03-12T00:31:05.465Z,0
2018-03-12T00:32:15.155Z,0
2018-03-12T00:33:24.320Z,0
2018-03-12T00:34:33.496Z,0
2018-03-12T00:35:42.808Z,0
2018-03-12T00:36:51.680Z,0
2018-03-12T00:38:01.116Z,0
2018-03-12T00:39:10.018Z,0
2018-03-12T00:40:18.959Z,0
2018-03-12T00:41:27.630Z,0
2018-03-12T00:42:36.802Z,0
2018-03-12T00:43:45.720Z,0
2018-03-12T00:44:54.354Z,0
2018-03-12T00:46:03.853Z,0
2018-03-12T00:47:13.296Z,0
2018-03-12T00:48:22.472Z,0
2018-03-12T00:49:31.160Z,0
2018-03-12T00:50:40.341Z,0
2018-03-12T00:51:49.490Z,0
2018-03-12T00:52:58.659Z,0
2018-03-12T00:54:07.816Z,0
2018-03-12T00:55:16.495Z,0
2018-03-12T00:56:25.661Z,0
2018-03-12T00:57:34.299Z,0
2018-03-12T00:58:43.191Z,0
2018-03-12T00:59:52.351Z,0
2018-03-12T01:01:01.278Z,0
2018-03-12T01:02:10.442Z,0
2018-03-12T01:03:19.841Z,0
2018-03-12T01:04:28.939Z,0
2018-03-12T01:05:37.584Z,0
2018-03-12T01:06:47.045Z,0
2018-03-12T01:07:55.729Z,0
2018-03-12T01:09:04.365Z,0
2018-03-12T01:10:13.786Z,0
2018-03-12T01:11:22.696Z,0
2018-03-12T01:12:31.859Z,0
2018-03-12T01:13:40.552Z,0
2018-03-12T01:14:49.975Z,0
2018-03-12T01:15:59.439Z,0
2018-03-12T01:17:08.369Z,0
2018-03-12T01:18:17.299Z,0
2018-03-12T01:19:25.958Z,0
2018-03-12T01:20:35.148Z,0
2018-03-12T01:21:44.317Z,0
2018-03-12T01:22:53.225Z,0
2018-03-12T01:24:02.711Z,0
2018-03-12T01:25:11.929Z,0
2018-03-12T01:26:21.108Z,0
2018-03-12T01:27:30.302Z,0
2018-03-12T01:28:39.482Z,0
2018-03-12T01:29:48.669Z,0
2018-03-12T01:30:57.812Z,0
2018-03-12T01:32:06.705Z,0
2018-03-12T01:33:15.613Z,0
2018-03-12T01:34:24.816Z,0
2018-03-12T01:35:33.451Z,0
2018-03-12T01:36:42.353Z,0
2018-03-12T01:37:50.995Z,0
2018-03-12T01:39:00.486Z,0
2018-03-12T01:40:09.932Z,0
2018-03-12T01:41:19.608Z,0
2018-03-12T01:42:29.057Z,0
2018-03-12T01:43:37.967Z,0
2018-03-12T01:44:47.125Z,0
2018-03-12T01:45:56.553Z,0
2018-03-12T01:47:05.719Z,0
2018-03-12T01:48:14.898Z,0
2018-03-12T01:49:24.324Z,0
2018-03-12T01:50:33.238Z,0
2018-03-12T01:51:42.407Z,0
2018-03-12T01:52:51.330Z,0
2018-03-12T01:54:00.534Z,0
2018-03-12T01:55:09.451Z,0
2018-03-12T01:56:18.147Z,0
2018-03-12T01:57:27.560Z,0
2018-03-12T01:58:37.327Z,0
2018-03-12T01:59:46.231Z,0
2018-03-12T02:00:55.187Z,0
2018-03-12T02:02:04.620Z,0
2018-03-12T02:03:13.577Z,0
2018-03-12T02:04:22.738Z,0
2018-03-12T02:05:31.912Z,0
2018-03-12T02:06:41.349Z,0
2018-03-12T02:07:50.257Z,0
2018-03-12T02:08:59.666Z,0
2018-03-12T02:10:09.360Z,0
2018-03-12T02:11:18.284Z,0
2018-03-12T02:12:27.219Z,0
2018-03-12T02:13:36.377Z,0
2018-03-12T02:14:45.547Z,0
2018-03-12T02:15:54.968Z,0
2018-03-12T02:17:04.127Z,0
2018-03-12T02:18:13.315Z,0
2018-03-12T02:19:22.479Z,0
2018-03-12T02:20:31.467Z,0
2018-03-12T02:21:40.408Z,0
2018-03-12T02:22:49.599Z,0
2018-03-12T02:23:58.495Z,0
2018-03-12T02:25:07.675Z,0
2018-03-12T02:26:16.613Z,0
2018-03-12T02:27:25.564Z,0
2018-03-12T02:28:34.208Z,0
2018-03-12T02:29:43.114Z,0
2018-03-12T02:30:52.531Z,0
2018-03-12T02:32:01.981Z,0
2018-03-12T02:33:10.627Z,0
2018-03-12T02:34:20.042Z,0
2018-03-12T02:35:29.284Z,0
2018-03-12T02:36:37.931Z,0
2018-03-12T02:37:47.892Z,0
2018-03-12T02:38:57.324Z,0
2018-03-12T02:40:06.509Z,0
2018-03-12T02:41:15.743Z,0
2018-03-12T02:42:24.931Z,0
2018-03-12T02:43:34.169Z,0
2018-03-12T02:44:43.576Z,0
2018-03-12T02:45:53.023Z,0
2018-03-12T02:47:02.461Z,0
2018-03-12T02:48:11.368Z,0
2018-03-12T02:49:20.050Z,0
2018-03-12T02:50:29.216Z,0
2018-03-12T02:51:38.124Z,0
2018-03-12T02:52:47.298Z,0
2018-03-12T02:53:56.472Z,0
2018-03-12T02:55:05.117Z,0
2018-03-12T02:56:14.296Z,0
2018-03-12T02:57:23.233Z,0
2018-03-12T02:58:32.424Z,0
2018-03-12T02:59:41.323Z,0
2018-03-12T03:00:50.756Z,0
2018-03-12T03:02:00.180Z,0
2018-03-12T03:03:09.376Z,0
2018-03-12T03:04:18.024Z,0
2018-03-12T03:05:26.924Z,0
2018-03-12T03:06:35.821Z,0
2018-03-12T03:07:44.460Z,0
2018-03-12T03:08:53.664Z,0
2018-03-12T03:10:02.827Z,0
2018-03-12T03:11:11.742Z,0
2018-03-12T03:12:20.379Z,0
2018-03-12T03:13:29.559Z,0
2018-03-12T03:14:38.244Z,0
2018-03-12T03:15:47.155Z,0
2018-03-12T03:16:56.073Z,0
2018-03-12T03:18:05.009Z,0
2018-03-12T03:19:14.759Z,0
2018-03-12T03:20:24.194Z,0
2018-03-12T03:21:33.122Z,0
2018-03-12T03:22:42.069Z,0
2018-03-12T03:23:51.240Z,0
2018-03-12T03:24:59.903Z,0
2018-03-12T03:26:09.391Z,0
2018-03-12T03:27:18.287Z,0
2018-03-12T03:28:27.232Z,0
2018-03-12T03:29:35.897Z,0
2018-03-12T03:30:45.081Z,0
2018-03-12T03:31:54.250Z,0
2018-03-12T03:33:03.416Z,0
2018-03-12T03:34:12.322Z,0
2018-03-12T03:35:21.497Z,0
2018-03-12T03:36:30.423Z,0
2018-03-12T03:37:39.408Z,0
2018-03-12T03:38:48.323Z,0
2018-03-12T03:39:57.526Z,0
2018-03-12T03:41:06.169Z,0
2018-03-12T03:42:15.579Z,0
2018-03-12T03:43:24.487Z,0
2018-03-12T03:44:33.394Z,0
2018-03-12T03:45:42.577Z,0
2018-03-12T03:46:51.982Z,0
2018-03-12T03:48:00.877Z,0
2018-03-12T03:49:09.528Z,0
2018-03-12T03:50:18.172Z,0
2018-03-12T03:51:27.351Z,0
2018-03-12T03:52:36.254Z,0
2018-03-12T03:53:45.477Z,0
2018-03-12T03:54:54.635Z,0
2018-03-12T03:56:03.784Z,0
2018-03-12T03:57:13.463Z,0
2018-03-12T03:58:22.373Z,0
2018-03-12T03:59:31.035Z,0
2018-03-12T04:00:39.945Z,0
2018-03-12T04:01:48.876Z,0
2018-03-12T04:02:58.305Z,0
2018-03-12T04:04:07.750Z,0
2018-03-12T04:05:16.925Z,0
2018-03-12T04:06:26.327Z,0
2018-03-12T04:07:35.772Z,0
2018-03-12T04:08:44.787Z,0
2018-03-12T04:09:53.705Z,0
2018-03-12T04:11:02.966Z,0
2018-03-12T04:12:12.156Z,0
2018-03-12T04:13:21.054Z,0
2018-03-12T04:14:29.947Z,0
2018-03-12T04:15:39.091Z,0
2018-03-12T04:16:47.995Z,0
2018-03-12T04:17:56.919Z,0
2018-03-12T04:19:06.636Z,0
2018-03-12T04:20:15.826Z,0
2018-03-12T04:21:25.008Z,0
2018-03-12T04:22:33.978Z,0
2018-03-12T04:23:43.140Z,0
2018-03-12T04:24:52.320Z,0
2018-03-12T04:26:01.257Z,0
2018-03-12T04:27:10.182Z,0
2018-03-12T04:28:19.644Z,0
2018-03-12T04:29:28.540Z,0
2018-03-12T04:30:37.443Z,0
2018-03-12T04:31:46.616Z,0
2018-03-12T04:32:55.565Z,0
2018-03-12T04:34:05.307Z,0
2018-03-12T04:35:14.230Z,0
2018-03-12T04:36:23.137Z,0
2018-03-12T04:37:32.075Z,0
2018-03-12T04:38:41.481Z,0
2018-03-12T04:39:50.130Z,0
2018-03-12T04:40:59.579Z,0
2018-03-12T04:42:08.478Z,0
2018-03-12T04:43:17.696Z,0
2018-03-12T04:44:27.698Z,0
2018-03-12T04:45:36.356Z,0
2018-03-12T04:46:45.579Z,0
2018-03-12T04:47:54.796Z,0
2018-03-12T04:49:04.212Z,0
2018-03-12T04:50:13.457Z,0
2018-03-12T04:51:22.645Z,0
2018-03-12T04:52:31.537Z,0
2018-03-12T04:53:40.459Z,0
2018-03-12T04:54:49.381Z,0
2018-03-12T04:55:58.547Z,0
2018-03-12T04:57:07.463Z,0
2018-03-12T04:58:16.647Z,0
2018-03-12T04:59:26.049Z,0
2018-03-12T05:00:35.798Z,0
2018-03-12T05:01:44.450Z,0
2018-03-12T05:02:53.637Z,0
2018-03-12T05:04:02.335Z,0
2018-03-12T05:05:10.969Z,0
2018-03-12T05:06:20.407Z,0
2018-03-12T05:07:29.590Z,0
2018-03-12T05:08:39.025Z,0
2018-03-12T05:09:48.195Z,0
2018-03-12T05:10:57.108Z,0
2018-03-12T05:12:06.021Z,0
2018-03-12T05:13:14.958Z,0
2018-03-12T05:14:23.941Z,0
2018-03-12T05:15:33.107Z,0
2018-03-12T05:16:42.566Z,0
2018-03-12T05:17:51.945Z,0
2018-03-12T05:19:00.593Z,0
2018-03-12T05:20:09.513Z,0
2018-03-12T05:21:18.970Z,0
2018-03-12T05:22:27.870Z,0
2018-03-12T05:23:36.619Z,0
2018-03-12T05:24:46.043Z,0
2018-03-12T05:25:54.933Z,0
2018-03-12T05:27:03.603Z,0
2018-03-12T05:28:44.372Z,0
2018-03-12T05:29:53.557Z,0
2018-03-12T05:31:02.727Z,0
2018-03-12T05:32:11.660Z,0
2018-03-12T05:33:21.085Z,0
2018-03-12T05:34:30.347Z,0
2018-03-12T05:35:39.758Z,0
2018-03-12T05:36:48.866Z,0
2018-03-12T05:37:58.290Z,0
2018-03-12T05:39:07.487Z,0
2018-03-12T05:40:16.674Z,0
2018-03-12T05:41:25.852Z,0
2018-03-12T05:42:35.049Z,0
2018-03-12T05:43:43.703Z,0
2018-03-12T05:44:52.863Z,0
2018-03-12T05:46:01.793Z,0
2018-03-12T05:47:10.995Z,0
2018-03-12T05:48:19.899Z,0
2018-03-12T05:49:28.533Z,0
2018-03-12T05:50:37.740Z,0
2018-03-12T05:51:46.638Z,0
2018-03-12T05:52:55.540Z,0
2018-03-12T05:54:04.187Z,0
2018-03-12T05:55:13.096Z,0
2018-03-12T05:56:22.593Z,0
2018-03-12T05:57:31.756Z,0
2018-03-12T05:58:41.197Z,0
2018-03-12T05:59:50.126Z,0
2018-03-12T06:00:59.321Z,0
2018-03-12T06:02:08.797Z,0
2018-03-12T06:03:17.999Z,0
2018-03-12T06:04:26.646Z,0
2018-03-12T06:05:35.573Z,0
2018-03-12T06:06:44.733Z,0
2018-03-12T06:07:53.678Z,0
2018-03-12T06:09:02.607Z,0
2018-03-12T06:10:11.555Z,0
2018-03-12T06:11:20.726Z,0
2018-03-12T06:12:30.163Z,0
2018-03-12T06:13:38.810Z,0
2018-03-12T06:14:47.800Z,0
2018-03-12T06:15:56.976Z,0
2018-03-12T06:17:05.710Z,0
2018-03-12T06:18:14.950Z,0
2018-03-12T06:19:24.453Z,0
2018-03-12T06:20:33.875Z,0
2018-03-12T06:21:42.770Z,0
2018-03-12T06:22:51.928Z,0
2018-03-12T06:24:00.853Z,0
2018-03-12T06:25:09.823Z,0
2018-03-12T06:26:18.464Z,0
2018-03-12T06:27:27.698Z,0
2018-03-12T06:28:37.141Z,0
2018-03-12T06:29:46.580Z,0
2018-03-12T06:30:55.475Z,0
2018-03-12T06:32:04.900Z,0
2018-03-12T06:33:14.333Z,0
2018-03-12T06:34:22.991Z,0
2018-03-12T06:35:32.161Z,0
2018-03-12T06:36:41.120Z,0
2018-03-12T06:37:49.801Z,0
2018-03-12T06:38:58.510Z,0
2018-03-12T06:40:07.456Z,0
2018-03-12T06:41:16.717Z,0
2018-03-12T06:42:25.882Z,0
2018-03-12T06:43:35.062Z,0
2018-03-12T06:44:43.979Z,0
2018-03-12T06:45:52.642Z,0
2018-03-12T06:47:01.552Z,0
2018-03-12T06:48:10.496Z,0
2018-03-12T06:49:19.941Z,0
2018-03-12T06:50:28.851Z,0
2018-03-12T06:51:37.800Z,0
2018-03-12T06:52:46.727Z,0
2018-03-12T06:53:55.897Z,0
2018-03-12T06:55:05.079Z,0
2018-03-12T06:56:14.276Z,0
2018-03-12T06:57:23.478Z,0
2018-03-12T06:58:32.769Z,0
2018-03-12T06:59:41.681Z,5
2018-03-12T07:00:51.367Z,5
2018-03-12T07:02:00.819Z,5
2018-03-12T07:03:10.048Z,5
2018-03-12T07:04:19.265Z,5
2018-03-12T07:05:27.935Z,5
2018-03-12T07:06:37.669Z,5
2018-03-12T07:07:47.135Z,5
2018-03-12T07:08:56.298Z,5
2018-03-12T07:10:05.445Z,5
2018-03-12T07:11:14.398Z,5
2018-03-12T07:12:23.813Z,5
2018-03-12T07:13:33.015Z,5
2018-03-12T07:14:41.926Z,5
2018-03-12T07:15:51.098Z,5
2018-03-12T07:16:59.743Z,5
2018-03-12T07:18:08.958Z,5
2018-03-12T07:19:17.608Z,5
2018-03-12T07:20:26.770Z,5
2018-03-12T07:21:35.419Z,5
2018-03-12T07:22:44.625Z,5
2018-03-12T07:23:53.852Z,5
2018-03-12T07:25:02.749Z,5
2018-03-12T07:26:11.673Z,5
2018-03-12T07:27:20.878Z,5
2018-03-12T07:28:29.783Z,5
2018-03-12T07:29:38.478Z,5
2018-03-12T07:30:48.014Z,5
2018-03-12T07:31:57.165Z,5
2018-03-12T07:33:06.657Z,0
2018-03-12T07:34:16.166Z,0
2018-03-12T07:35:25.102Z,0
2018-03-12T07:36:34.102Z,5
2018-03-12T07:37:43.810Z,5
2018-03-12T07:38:53.774Z,5
2018-03-12T07:40:02.714Z,5
2018-03-12T07:41:11.903Z,5
2018-03-12T07:42:21.083Z,5
2018-03-12T07:43:30.019Z,5
2018-03-12T07:44:39.754Z,5
2018-03-12T07:45:48.673Z,5
2018-03-12T07:46:57.608Z,5
2018-03-12T07:48:06.911Z,5
2018-03-12T07:49:15.603Z,5
2018-03-12T07:50:24.569Z,5
2018-03-12T07:51:33.752Z,5
2018-03-12T07:52:43.448Z,5
2018-03-12T07:53:52.632Z,5
2018-03-12T07:55:01.817Z,5
2018-03-12T07:56:10.999Z,5
2018-03-12T07:57:19.928Z,5
2018-03-12T07:58:28.849Z,5
2018-03-12T07:59:38.551Z,5
2018-03-12T08:00:47.472Z,5
2018-03-12T08:01:56.410Z,5
2018-03-12T08:03:05.328Z,10
2018-03-12T08:04:14.247Z,10
2018-03-12T08:05:23.177Z,10
2018-03-12T08:06:32.115Z,15
2018-03-12T08:07:41.301Z,15
2018-03-12T08:08:50.749Z,20
2018-03-12T08:09:59.494Z,25
2018-03-12T08:11:08.438Z,30
2018-03-12T08:12:17.370Z,35
2018-03-12T08:13:26.049Z,35
2018-03-12T08:14:35.232Z,35
2018-03-12T08:15:44.392Z,35
2018-03-12T08:16:53.637Z,30
2018-03-12T08:18:02.307Z,30
2018-03-12T08:19:12.043Z,25
2018-03-12T08:20:21.494Z,25
2018-03-12T08:21:31.203Z,25
2018-03-12T08:22:40.391Z,20
2018-03-12T08:23:50.086Z,20
2018-03-12T08:24:58.767Z,15
2018-03-12T08:26:07.675Z,15
2018-03-12T08:27:17.372Z,15
2018-03-12T08:28:26.570Z,15
2018-03-12T08:29:35.792Z,15
2018-03-12T08:30:44.701Z,15
2018-03-12T08:31:53.614Z,15
2018-03-12T08:33:02.540Z,15
2018-03-12T08:34:11.986Z,15
2018-03-12T08:35:20.898Z,15
2018-03-12T08:36:29.551Z,15
2018-03-12T08:37:38.223Z,15
2018-03-12T08:38:47.456Z,15
2018-03-12T08:39:56.642Z,15
2018-03-12T08:41:05.584Z,15
2018-03-12T08:42:15.018Z,15
2018-03-12T08:43:24.212Z,15
2018-03-12T08:44:32.877Z,15
2018-03-12T08:45:41.809Z,15
2018-03-12T08:46:51.038Z,15
2018-03-12T08:47:59.958Z,15
2018-03-12T08:49:09.142Z,15
2018-03-12T08:50:18.939Z,15
2018-03-12T08:51:28.383Z,15
2018-03-12T08:52:37.048Z,15
2018-03-12T08:53:46.232Z,10
2018-03-12T08:54:55.933Z,10
2018-03-12T08:56:04.619Z,10
2018-03-12T08:57:13.553Z,10
2018-03-12T08:58:22.729Z,10
2018-03-12T08:59:31.380Z,15
2018-03-12T09:00:40.815Z,15
2018-03-12T09:01:49.463Z,20
2018-03-12T09:02:58.897Z,20
2018-03-12T09:04:07.560Z,25
2018-03-12T09:05:16.197Z,25
2018-03-12T09:06:25.115Z,25
2018-03-12T09:07:34.539Z,25
2018-03-12T09:08:43.740Z,25
2018-03-12T09:09:53.926Z,25
2018-03-12T09:11:03.100Z,25
2018-03-12T09:12:11.756Z,20
2018-03-12T09:13:20.693Z,20
2018-03-12T09:14:30.170Z,25
2018-03-12T09:15:39.352Z,25
2018-03-12T09:16:48.258Z,30
2018-03-12T09:17:57.442Z,30
2018-03-12T09:19:06.392Z,30
2018-03-12T09:20:15.046Z,30
2018-03-12T09:21:24.002Z,30
2018-03-12T09:22:32.675Z,30
2018-03-12T09:23:41.867Z,25
2018-03-12T09:24:50.825Z,25
2018-03-12T09:26:00.854Z,25
2018-03-12T09:27:10.296Z,25
2018-03-12T09:28:19.212Z,25
2018-03-12T09:29:28.119Z,25
2018-03-12T09:30:36.783Z,35
2018-03-12T09:31:45.976Z,45
2018-03-12T09:32:54.914Z,50
2018-03-12T09:34:03.922Z,55
2018-03-12T09:35:13.102Z,60
2018-03-12T09:36:22.566Z,60
2018-03-12T09:37:32.041Z,65
2018-03-12T09:38:41.214Z,65
2018-03-12T09:39:50.655Z,65
2018-03-12T09:41:00.383Z,65
2018-03-12T09:42:09.590Z,65
2018-03-12T09:43:19.057Z,70
2018-03-12T09:44:28.236Z,75
2018-03-12T09:45:37.143Z,70
2018-03-12T09:46:46.347Z,65
2018-03-12T09:47:55.800Z,60
2018-03-12T09:49:05.331Z,65
2018-03-12T09:50:14.242Z,60
2018-03-12T09:51:23.152Z,65
2018-03-12T09:52:32.592Z,70
2018-03-12T09:53:41.530Z,70
2018-03-12T09:54:51.215Z,75
2018-03-12T09:56:00.645Z,70
2018-03-12T09:57:10.096Z,75
2018-03-12T09:58:18.748Z,75
2018-03-12T09:59:28.219Z,70
2018-03-12T10:00:37.146Z,65
2018-03-12T10:01:45.813Z,65
2018-03-12T10:02:54.747Z,65
2018-03-12T10:04:03.973Z,65
2018-03-12T10:05:12.663Z,65
2018-03-12T10:06:21.865Z,65
2018-03-12T10:07:31.072Z,70
2018-03-12T10:08:40.000Z,70
2018-03-12T10:09:48.928Z,70
2018-03-12T10:10:57.896Z,65
2018-03-12T10:12:07.116Z,60
2018-03-12T10:13:16.326Z,60
2018-03-12T10:14:25.248Z,60
2018-03-12T10:15:33.911Z,60
2018-03-12T10:16:42.860Z,65
2018-03-12T10:17:52.047Z,65
2018-03-12T10:19:01.245Z,70
2018-03-12T10:20:10.411Z,70
2018-03-12T10:21:19.618Z,70
2018-03-12T10:22:29.057Z,65
2018-03-12T10:23:38.077Z,60
2018-03-12T10:24:46.726Z,60
2018-03-12T10:25:55.433Z,60
2018-03-12T10:27:04.620Z,55
2018-03-12T10:28:13.557Z,45
2018-03-12T10:29:23.025Z,45
2018-03-12T10:30:31.966Z,45
2018-03-12T10:31:40.937Z,50
2018-03-12T10:32:50.136Z,50
2018-03-12T10:33:59.569Z,55
2018-03-12T10:35:08.798Z,50
2018-03-12T10:36:17.957Z,45
2018-03-12T10:37:27.158Z,40
2018-03-12T10:38:36.101Z,40
2018-03-12T10:39:45.030Z,35
2018-03-12T10:40:54.220Z,35
2018-03-12T10:42:03.955Z,35
2018-03-12T10:43:13.443Z,35
2018-03-12T10:44:22.367Z,35
2018-03-12T10:45:31.306Z,35
2018-03-12T10:46:40.227Z,35
2018-03-12T10:47:49.681Z,35
2018-03-12T10:48:58.649Z,30
2018-03-12T10:50:07.858Z,30
2018-03-12T10:51:17.114Z,30
2018-03-12T10:52:26.323Z,25
2018-03-12T10:53:34.998Z,40
2018-03-12T10:54:44.168Z,40
2018-03-12T10:55:52.849Z,45
2018-03-12T10:57:01.788Z,40
2018-03-12T10:58:10.465Z,35
2018-03-12T10:59:19.660Z,30
2018-03-12T11:00:29.128Z,25
2018-03-12T11:01:38.623Z,40
2018-03-12T11:02:47.540Z,40
2018-03-12T11:03:56.714Z,45
2018-03-12T11:05:05.918Z,45
2018-03-12T11:06:15.364Z,50
2018-03-12T11:07:24.046Z,60
2018-03-12T11:08:33.525Z,50
2018-03-12T11:09:42.459Z,50
2018-03-12T11:10:51.473Z,55
2018-03-12T11:12:00.394Z,55
2018-03-12T11:13:09.364Z,50
2018-03-12T11:14:18.617Z,55
2018-03-12T11:15:27.271Z,65
2018-03-12T11:16:36.500Z,70
2018-03-12T11:17:45.960Z,70
2018-03-12T11:18:54.889Z,65
2018-03-12T11:20:03.832Z,65
2018-03-12T11:21:12.807Z,65
2018-03-12T11:22:22.239Z,60
2018-03-12T11:23:31.208Z,50
2018-03-12T11:24:40.172Z,45
2018-03-12T11:25:49.411Z,45
2018-03-12T11:26:58.613Z,45
2018-03-12T11:28:07.552Z,40
2018-03-12T11:29:16.490Z,40
2018-03-12T11:30:25.428Z,35
2018-03-12T11:31:34.608Z,40
2018-03-12T11:32:43.544Z,35
2018-03-12T11:33:52.994Z,35
2018-03-12T11:35:02.269Z,35
2018-03-12T11:36:11.131Z,35
2018-03-12T11:37:20.635Z,40
2018-03-12T11:38:29.297Z,40
2018-03-12T11:39:38.764Z,45
2018-03-12T11:40:47.851Z,45
2018-03-12T11:41:56.729Z,40
2018-03-12T11:43:05.653Z,35
2018-03-12T11:44:14.850Z,40
2018-03-12T11:45:23.822Z,40
2018-03-12T11:46:33.251Z,45
2018-03-12T11:47:42.456Z,40
2018-03-12T11:48:51.659Z,40
2018-03-12T11:50:00.866Z,35
2018-03-12T11:51:09.822Z,35
2018-03-12T11:52:19.009Z,30
2018-03-12T11:53:28.204Z,30
2018-03-12T11:54:37.139Z,35
2018-03-12T11:55:46.339Z,30
2018-03-12T11:56:55.567Z,25
2018-03-12T11:58:04.524Z,25
2018-03-12T11:59:13.713Z,20
2018-03-12T12:00:22.375Z,20
2018-03-12T12:01:31.559Z,15
2018-03-12T12:02:40.503Z,15
2018-03-12T12:03:49.936Z,15
2018-03-12T12:04:59.142Z,15
2018-03-12T12:06:08.117Z,20
2018-03-12T12:07:17.303Z,25
2018-03-12T12:08:26.233Z,35
2018-03-12T12:09:35.682Z,40
2018-03-12T12:10:44.617Z,40
2018-03-12T12:11:53.576Z,35
2018-03-12T12:13:02.578Z,35
2018-03-12T12:14:12.044Z,40
2018-03-12T12:15:21.243Z,40
2018-03-12T12:16:30.695Z,40
2018-03-12T12:17:39.406Z,30
2018-03-12T12:18:48.871Z,30
2018-03-12T12:19:58.077Z,30
2018-03-12T12:21:07.072Z,40
2018-03-12T12:22:16.300Z,40
2018-03-12T12:23:25.556Z,35
2018-03-12T12:24:34.765Z,30
2018-03-12T12:25:43.979Z,30
2018-03-12T12:26:53.500Z,30
2018-03-12T12:28:02.431Z,35
2018-03-12T12:29:11.116Z,40
2018-03-12T12:30:20.650Z,45
2018-03-12T12:31:30.370Z,45
2018-03-12T12:32:39.541Z,45
2018-03-12T12:33:48.782Z,40
2018-03-12T12:34:57.700Z,35
2018-03-12T12:36:07.137Z,35
2018-03-12T12:37:16.073Z,30
2018-03-12T12:38:25.024Z,30
2018-03-12T12:39:34.218Z,25
2018-03-12T12:40:43.394Z,20
2018-03-12T12:41:52.845Z,20
2018-03-12T12:43:02.547Z,20
2018-03-12T12:44:11.731Z,20
2018-03-12T12:45:21.217Z,30
2018-03-12T12:46:30.204Z,30
2018-03-12T12:47:39.383Z,30
2018-03-12T12:48:48.638Z,30
2018-03-12T12:49:58.085Z,30
2018-03-12T12:51:07.036Z,25
2018-03-12T12:52:15.967Z,25
2018-03-12T12:53:25.143Z,25
2018-03-12T12:54:34.360Z,25
2018-03-12T12:55:43.333Z,35
2018-03-12T12:56:52.518Z,45
2018-03-12T12:58:01.707Z,55
2018-03-12T12:59:10.681Z,50
2018-03-12T13:00:19.348Z,35
2018-03-12T13:01:28.834Z,30
2018-03-12T13:02:38.344Z,30
2018-03-12T13:03:47.050Z,35
2018-03-12T13:04:55.975Z,40
2018-03-12T13:06:05.263Z,45
2018-03-12T13:07:14.232Z,50
2018-03-12T13:08:23.168Z,45
2018-03-12T13:09:32.366Z,45
2018-03-12T13:10:41.822Z,40
2018-03-12T13:11:51.277Z,40
2018-03-12T13:13:00.208Z,45
2018-03-12T13:14:09.491Z,40
2018-03-12T13:15:18.716Z,40
2018-03-12T13:16:27.653Z,40
2018-03-12T13:17:36.839Z,45
2018-03-12T13:18:45.750Z,45
2018-03-12T13:19:55.212Z,45
2018-03-12T13:21:04.132Z,40
2018-03-12T13:22:13.054Z,40
2018-03-12T13:23:22.271Z,40
2018-03-12T13:24:31.214Z,45
2018-03-12T13:25:40.184Z,40
2018-03-12T13:26:48.855Z,35
2018-03-12T13:27:57.788Z,30
2018-03-12T13:29:07.013Z,35
2018-03-12T13:30:15.687Z,25
2018-03-12T13:31:24.965Z,25
2018-03-12T13:32:33.953Z,20
2018-03-12T13:33:42.904Z,20
2018-03-12T13:34:51.959Z,20
2018-03-12T13:36:00.969Z,25
2018-03-12T13:37:10.427Z,20
2018-03-12T13:38:19.081Z,20
2018-03-12T13:39:28.031Z,20
2018-03-12T13:40:36.970Z,20
2018-03-12T13:41:46.162Z,25
2018-03-12T13:42:55.129Z,25
2018-03-12T13:44:04.845Z,25
2018-03-12T13:45:14.316Z,25
2018-03-12T13:46:23.085Z,20
2018-03-12T13:47:31.756Z,25
2018-03-12T13:48:41.015Z,25
2018-03-12T13:49:49.967Z,25
2018-03-12T13:50:59.673Z,25
2018-03-12T13:52:09.118Z,25
2018-03-12T13:53:18.339Z,25
2018-03-12T13:54:27.545Z,25
2018-03-12T13:55:36.500Z,30
2018-03-12T13:56:45.945Z,30
2018-03-12T13:57:55.202Z,30
2018-03-12T13:59:04.438Z,25
2018-03-12T14:00:14.021Z,30
2018-03-12T14:01:22.965Z,30
2018-03-12T14:02:31.879Z,30
2018-03-12T14:03:40.810Z,30
2018-03-12T14:04:49.740Z,25
2018-03-12T14:05:58.659Z,25
2018-03-12T14:07:07.903Z,35
2018-03-12T14:08:17.643Z,40
2018-03-12T14:09:26.602Z,40
2018-03-12T14:10:36.061Z,35
2018-03-12T14:11:45.306Z,35
2018-03-12T14:12:54.734Z,35
2018-03-12T14:14:03.982Z,35
2018-03-12T14:15:12.981Z,30
2018-03-12T14:16:22.201Z,30
2018-03-12T14:17:30.907Z,30
2018-03-12T14:18:39.823Z,35
2018-03-12T14:19:49.031Z,35
2018-03-12T14:20:58.539Z,35
2018-03-12T14:22:07.234Z,30
2018-03-12T14:23:15.838Z,30
2018-03-12T14:24:24.772Z,25
2018-03-12T14:25:33.748Z,25
2018-03-12T14:26:43.182Z,25
2018-03-12T14:27:52.354Z,30
2018-03-12T14:29:01.309Z,35
2018-03-12T14:30:09.989Z,30
2018-03-12T14:31:19.173Z,25
2018-03-12T14:32:28.653Z,25
2018-03-12T14:33:37.615Z,30
2018-03-12T14:34:46.820Z,25
2018-03-12T14:35:56.282Z,20
2018-03-12T14:37:04.957Z,20
2018-03-12T14:38:14.446Z,20
2018-03-12T14:39:23.730Z,25
2018-03-12T14:40:32.935Z,25
2018-03-12T14:41:42.159Z,30
2018-03-12T14:42:50.880Z,30
2018-03-12T14:44:00.317Z,30
2018-03-12T14:45:09.818Z,30
2018-03-12T14:46:19.008Z,35
2018-03-12T14:47:29.019Z,30
2018-03-12T14:48:38.232Z,30
2018-03-12T14:49:47.413Z,30
2018-03-12T14:50:56.591Z,30
2018-03-12T14:52:05.531Z,30
2018-03-12T14:53:14.211Z,30
2018-03-12T14:54:23.454Z,30
2018-03-12T14:55:32.464Z,30
2018-03-12T14:56:41.122Z,30
2018-03-12T14:57:50.362Z,25
2018-03-12T14:58:59.583Z,25
2018-03-12T15:00:09.045Z,25
2018-03-12T15:01:18.620Z,25
2018-03-12T15:02:28.564Z,20
2018-03-12T15:03:37.484Z,20
2018-03-12T15:04:47.196Z,15
2018-03-12T15:05:55.841Z,10
2018-03-12T15:07:05.063Z,10
2018-03-12T15:08:14.297Z,15
2018-03-12T15:09:22.964Z,20
2018-03-12T15:10:32.143Z,25
2018-03-12T15:11:41.335Z,30
2018-03-12T15:12:50.574Z,30
2018-03-12T15:14:00.321Z,25
2018-03-12T15:15:09.523Z,20
2018-03-12T15:16:18.994Z,20
2018-03-12T15:17:27.929Z,20
2018-03-12T15:18:36.622Z,20
2018-03-12T15:19:45.557Z,20
2018-03-12T15:20:54.483Z,15
2018-03-12T15:22:03.814Z,15
2018-03-12T15:23:12.713Z,15
2018-03-12T15:24:21.902Z,10
2018-03-12T15:25:31.356Z,10
2018-03-12T15:26:40.682Z,10
2018-03-12T15:27:49.889Z,10
2018-03-12T15:28:58.828Z,10
2018-03-12T15:30:08.038Z,10
2018-03-12T15:31:17.228Z,10
2018-03-12T15:32:26.145Z,10
2018-03-12T15:33:34.876Z,10
2018-03-12T15:34:44.301Z,5
2018-03-12T15:35:53.527Z,5
2018-03-12T15:37:02.727Z,5
2018-03-12T15:38:11.680Z,5
2018-03-12T15:39:21.141Z,10
2018-03-12T15:40:30.339Z,10
2018-03-12T15:41:39.278Z,10
2018-03-12T15:42:48.711Z,10
2018-03-12T15:43:57.894Z,10
2018-03-12T15:45:07.344Z,10
2018-03-12T15:46:16.302Z,15
2018-03-12T15:47:25.273Z,15
2018-03-12T15:48:34.230Z,15
2018-03-12T15:49:43.155Z,15
2018-03-12T15:50:52.088Z,15
2018-03-12T15:52:00.784Z,15
2018-03-12T15:53:09.956Z,10
2018-03-12T15:54:18.624Z,10
2018-03-12T15:55:28.075Z,10
2018-03-12T15:56:37.282Z,10
2018-03-12T15:57:46.278Z,10
2018-03-12T15:58:55.813Z,10
2018-03-12T16:00:05.290Z,10
2018-03-12T16:01:14.732Z,10
2018-03-12T16:02:24.187Z,10
2018-03-12T16:03:32.893Z,10
2018-03-12T16:04:41.869Z,10
2018-03-12T16:05:51.062Z,10
2018-03-12T16:06:59.725Z,10
2018-03-12T16:08:09.734Z,10
2018-03-12T16:09:18.681Z,10
2018-03-12T16:10:27.901Z,10
2018-03-12T16:11:37.615Z,10
2018-03-12T16:12:46.795Z,10
2018-03-12T16:13:55.724Z,10
2018-03-12T16:15:04.644Z,5
2018-03-12T16:16:13.826Z,10
2018-03-12T16:17:23.256Z,10
2018-03-12T16:18:31.905Z,5
2018-03-12T16:19:40.814Z,5
2018-03-12T16:20:49.985Z,5
2018-03-12T16:21:59.210Z,5
2018-03-12T16:23:08.396Z,5
2018-03-12T16:24:17.856Z,5
2018-03-12T16:25:26.774Z,5
2018-03-12T16:26:35.703Z,5
2018-03-12T16:27:44.357Z,5
2018-03-12T16:28:53.026Z,5
2018-03-12T16:30:01.948Z,10
2018-03-12T16:31:10.628Z,10
2018-03-12T16:32:20.334Z,10
2018-03-12T16:33:29.006Z,10
2018-03-12T16:34:37.973Z,10
2018-03-12T16:35:47.427Z,10
2018-03-12T16:36:56.359Z,5
2018-03-12T16:38:05.270Z,5
2018-03-12T16:39:13.932Z,5
2018-03-12T16:40:22.586Z,5
2018-03-12T16:41:31.780Z,5
2018-03-12T16:42:40.992Z,5
2018-03-12T16:43:50.692Z,5